sensor_id;sensor_type;location;lat;lon;timestamp;P1;durP1;ratioP1;P2;durP2;ratioP2
21091;SDS011;10704;42.678;23.288;2023-02-18T00:03:40;25.73;;;15.57;;
21091;SDS011;10704;42.678;23.288;2023-02-18T00:06:26;31.05;;;15.68;;
21091;SDS011;10704;42.678;23.288;2023-02-18T00:08:54;36.35;;;15.02;;
21091;SDS011;10704;42.678;23.288;2023-02-18T00:15:10;31.05;;;15.10;;
21091;SDS011;10704;42.678;23.288;2023-02-18T00:17:36;31.15;;;15.27;;
21091;SDS011;10704;42.678;23.288;2023-02-18T00:20:03;28.13;;;14.82;;
21091;SDS011;10704;42.678;23.288;2023-02-18T00:22:30;39.38;;;15.57;;
21091;SDS011;10704;42.678;23.288;2023-02-18T00:24:55;25.23;;;13.32;;
21091;SDS011;10704;42.678;23.288;2023-02-18T00:27:21;28.50;;;14.85;;
21091;SDS011;10704;42.678;23.288;2023-02-18T00:29:47;26.52;;;14.75;;
21091;SDS011;10704;42.678;23.288;2023-02-18T00:32:13;29.00;;;14.50;;
21091;SDS011;10704;42.678;23.288;2023-02-18T00:34:39;34.88;;;16.33;;
21091;SDS011;10704;42.678;23.288;2023-02-18T00:37:05;30.15;;;15.52;;
21091;SDS011;10704;42.678;23.288;2023-02-18T00:39:30;28.98;;;14.32;;
21091;SDS011;10704;42.678;23.288;2023-02-18T00:41:56;29.73;;;15.32;;
21091;SDS011;10704;42.678;23.288;2023-02-18T00:44:22;29.42;;;15.02;;
21091;SDS011;10704;42.678;23.288;2023-02-18T00:46:48;32.53;;;16.67;;
21091;SDS011;10704;42.678;23.288;2023-02-18T00:49:14;30.45;;;15.43;;
21091;SDS011;10704;42.678;23.288;2023-02-18T00:51:40;30.90;;;15.48;;
21091;SDS011;10704;42.678;23.288;2023-02-18T00:54:06;35.17;;;16.70;;
21091;SDS011;10704;42.678;23.288;2023-02-18T00:56:33;29.80;;;16.33;;
21091;SDS011;10704;42.678;23.288;2023-02-18T00:58:59;27.20;;;14.07;;
21091;SDS011;10704;42.678;23.288;2023-02-18T01:01:25;29.52;;;15.43;;
21091;SDS011;10704;42.678;23.288;2023-02-18T01:03:52;31.38;;;15.10;;
21091;SDS011;10704;42.678;23.288;2023-02-18T01:06:18;31.83;;;15.85;;
21091;SDS011;10704;42.678;23.288;2023-02-18T01:08:46;30.80;;;16.95;;
21091;SDS011;10704;42.678;23.288;2023-02-18T01:11:13;31.58;;;16.40;;
21091;SDS011;10704;42.678;23.288;2023-02-18T01:13:39;30.38;;;16.08;;
21091;SDS011;10704;42.678;23.288;2023-02-18T01:16:07;33.65;;;14.75;;
21091;SDS011;10704;42.678;23.288;2023-02-18T01:18:33;32.13;;;16.42;;
21091;SDS011;10704;42.678;23.288;2023-02-18T01:21:02;28.88;;;15.30;;
21091;SDS011;10704;42.678;23.288;2023-02-18T01:23:29;26.10;;;14.43;;
21091;SDS011;10704;42.678;23.288;2023-02-18T01:25:56;31.67;;;16.23;;
21091;SDS011;10704;42.678;23.288;2023-02-18T01:28:22;27.35;;;14.95;;
21091;SDS011;10704;42.678;23.288;2023-02-18T01:30:50;32.10;;;14.43;;
21091;SDS011;10704;42.678;23.288;2023-02-18T01:33:17;32.22;;;14.77;;
21091;SDS011;10704;42.678;23.288;2023-02-18T01:35:44;28.00;;;13.73;;
21091;SDS011;10704;42.678;23.288;2023-02-18T01:38:10;26.35;;;14.25;;
21091;SDS011;10704;42.678;23.288;2023-02-18T01:40:43;30.17;;;14.60;;
21091;SDS011;10704;42.678;23.288;2023-02-18T01:43:12;25.15;;;13.20;;
21091;SDS011;10704;42.678;23.288;2023-02-18T01:45:46;32.53;;;14.02;;
21091;SDS011;10704;42.678;23.288;2023-02-18T01:48:30;27.40;;;13.43;;
21091;SDS011;10704;42.678;23.288;2023-02-18T01:51:08;29.33;;;12.65;;
21091;SDS011;10704;42.678;23.288;2023-02-18T01:53:36;28.25;;;13.38;;
21091;SDS011;10704;42.678;23.288;2023-02-18T01:56:18;23.30;;;11.77;;
21091;SDS011;10704;42.678;23.288;2023-02-18T01:58:49;27.40;;;12.88;;
21091;SDS011;10704;42.678;23.288;2023-02-18T02:01:17;24.65;;;12.32;;
21091;SDS011;10704;42.678;23.288;2023-02-18T02:03:43;19.75;;;10.40;;
21091;SDS011;10704;42.678;23.288;2023-02-18T02:06:11;22.20;;;11.73;;
21091;SDS011;10704;42.678;23.288;2023-02-18T02:08:41;24.25;;;11.05;;
21091;SDS011;10704;42.678;23.288;2023-02-18T02:11:15;25.35;;;11.18;;
21091;SDS011;10704;42.678;23.288;2023-02-18T02:24:45;24.45;;;12.57;;
21091;SDS011;10704;42.678;23.288;2023-02-18T02:31:24;29.20;;;12.65;;
21091;SDS011;10704;42.678;23.288;2023-02-18T02:42:22;24.80;;;12.27;;
21091;SDS011;10704;42.678;23.288;2023-02-18T02:48:38;25.10;;;11.93;;
21091;SDS011;10704;42.678;23.288;2023-02-18T02:51:25;22.75;;;11.90;;
21091;SDS011;10704;42.678;23.288;2023-02-18T02:54:15;30.80;;;14.05;;
21091;SDS011;10704;42.678;23.288;2023-02-18T02:56:41;25.83;;;13.05;;
21091;SDS011;10704;42.678;23.288;2023-02-18T02:59:14;28.50;;;13.55;;
21091;SDS011;10704;42.678;23.288;2023-02-18T03:08:08;27.45;;;12.90;;
21091;SDS011;10704;42.678;23.288;2023-02-18T03:10:55;23.83;;;11.88;;
21091;SDS011;10704;42.678;23.288;2023-02-18T03:26:35;23.13;;;11.38;;
21091;SDS011;10704;42.678;23.288;2023-02-18T03:29:04;21.15;;;11.88;;
21091;SDS011;10704;42.678;23.288;2023-02-18T03:31:33;21.98;;;12.27;;
21091;SDS011;10704;42.678;23.288;2023-02-18T03:34:37;25.33;;;12.07;;
21091;SDS011;10704;42.678;23.288;2023-02-18T03:36:57;28.85;;;13.68;;
21091;SDS011;10704;42.678;23.288;2023-02-18T03:39:24;26.10;;;13.65;;
21091;SDS011;10704;42.678;23.288;2023-02-18T03:41:52;23.85;;;12.88;;
21091;SDS011;10704;42.678;23.288;2023-02-18T03:44:18;23.08;;;12.70;;
21091;SDS011;10704;42.678;23.288;2023-02-18T03:46:44;29.65;;;14.32;;
21091;SDS011;10704;42.678;23.288;2023-02-18T03:49:11;27.20;;;12.90;;
21091;SDS011;10704;42.678;23.288;2023-02-18T03:51:39;24.65;;;12.98;;
21091;SDS011;10704;42.678;23.288;2023-02-18T03:54:06;38.53;;;16.00;;
21091;SDS011;10704;42.678;23.288;2023-02-18T03:56:33;40.08;;;16.33;;
21091;SDS011;10704;42.678;23.288;2023-02-18T03:58:59;34.92;;;15.93;;
21091;SDS011;10704;42.678;23.288;2023-02-18T04:01:25;38.80;;;15.55;;
21091;SDS011;10704;42.678;23.288;2023-02-18T04:03:51;38.55;;;16.05;;
21091;SDS011;10704;42.678;23.288;2023-02-18T04:06:20;51.47;;;18.33;;
21091;SDS011;10704;42.678;23.288;2023-02-18T04:08:47;83.50;;;25.25;;
21091;SDS011;10704;42.678;23.288;2023-02-18T04:11:13;81.15;;;25.40;;
21091;SDS011;10704;42.678;23.288;2023-02-18T04:13:38;73.13;;;24.92;;
21091;SDS011;10704;42.678;23.288;2023-02-18T04:16:06;56.08;;;20.52;;
21091;SDS011;10704;42.678;23.288;2023-02-18T04:18:32;30.75;;;14.45;;
21091;SDS011;10704;42.678;23.288;2023-02-18T04:20:58;29.15;;;13.38;;
21091;SDS011;10704;42.678;23.288;2023-02-18T04:23:23;23.10;;;13.02;;
21091;SDS011;10704;42.678;23.288;2023-02-18T04:25:50;28.08;;;13.48;;
21091;SDS011;10704;42.678;23.288;2023-02-18T04:28:16;26.40;;;13.85;;
21091;SDS011;10704;42.678;23.288;2023-02-18T04:30:42;28.80;;;13.75;;
21091;SDS011;10704;42.678;23.288;2023-02-18T04:33:09;34.85;;;15.30;;
21091;SDS011;10704;42.678;23.288;2023-02-18T04:35:35;36.42;;;17.38;;
21091;SDS011;10704;42.678;23.288;2023-02-18T04:38:01;40.15;;;17.58;;
21091;SDS011;10704;42.678;23.288;2023-02-18T04:40:28;34.35;;;16.55;;
21091;SDS011;10704;42.678;23.288;2023-02-18T04:42:57;33.08;;;14.95;;
21091;SDS011;10704;42.678;23.288;2023-02-18T04:45:24;34.28;;;14.88;;
21091;SDS011;10704;42.678;23.288;2023-02-18T04:47:51;37.10;;;15.38;;
21091;SDS011;10704;42.678;23.288;2023-02-18T04:50:17;27.42;;;14.15;;
21091;SDS011;10704;42.678;23.288;2023-02-18T04:52:43;32.65;;;14.07;;
21091;SDS011;10704;42.678;23.288;2023-02-18T04:55:09;24.48;;;13.68;;
21091;SDS011;10704;42.678;23.288;2023-02-18T04:57:35;29.08;;;14.05;;
21091;SDS011;10704;42.678;23.288;2023-02-18T05:00:02;29.98;;;13.52;;
21091;SDS011;10704;42.678;23.288;2023-02-18T05:02:32;24.20;;;13.02;;
21091;SDS011;10704;42.678;23.288;2023-02-18T05:04:58;28.02;;;14.25;;
21091;SDS011;10704;42.678;23.288;2023-02-18T05:07:24;26.05;;;14.35;;
21091;SDS011;10704;42.678;23.288;2023-02-18T05:09:50;26.40;;;13.20;;
21091;SDS011;10704;42.678;23.288;2023-02-18T05:12:16;26.70;;;14.32;;
21091;SDS011;10704;42.678;23.288;2023-02-18T05:14:42;25.42;;;13.65;;
21091;SDS011;10704;42.678;23.288;2023-02-18T05:17:07;31.50;;;14.38;;
21091;SDS011;10704;42.678;23.288;2023-02-18T05:19:33;26.48;;;13.50;;
21091;SDS011;10704;42.678;23.288;2023-02-18T05:21:59;25.77;;;13.23;;
21091;SDS011;10704;42.678;23.288;2023-02-18T05:24:25;24.08;;;12.73;;
21091;SDS011;10704;42.678;23.288;2023-02-18T05:26:51;27.15;;;13.98;;
21091;SDS011;10704;42.678;23.288;2023-02-18T05:29:17;27.65;;;13.30;;
21091;SDS011;10704;42.678;23.288;2023-02-18T05:31:43;26.60;;;13.00;;
21091;SDS011;10704;42.678;23.288;2023-02-18T05:34:08;27.70;;;13.65;;
21091;SDS011;10704;42.678;23.288;2023-02-18T05:36:34;23.50;;;12.85;;
21091;SDS011;10704;42.678;23.288;2023-02-18T05:39:00;27.05;;;12.70;;
21091;SDS011;10704;42.678;23.288;2023-02-18T05:41:26;24.80;;;12.23;;
21091;SDS011;10704;42.678;23.288;2023-02-18T05:43:53;29.83;;;13.38;;
21091;SDS011;10704;42.678;23.288;2023-02-18T05:46:37;29.48;;;12.38;;
21091;SDS011;10704;42.678;23.288;2023-02-18T05:49:03;25.70;;;13.57;;
21091;SDS011;10704;42.678;23.288;2023-02-18T05:51:29;29.90;;;14.00;;
21091;SDS011;10704;42.678;23.288;2023-02-18T05:53:54;27.73;;;13.32;;
21091;SDS011;10704;42.678;23.288;2023-02-18T05:56:20;29.48;;;13.65;;
21091;SDS011;10704;42.678;23.288;2023-02-18T05:58:46;25.33;;;12.40;;
21091;SDS011;10704;42.678;23.288;2023-02-18T06:01:12;24.40;;;13.48;;
21091;SDS011;10704;42.678;23.288;2023-02-18T06:03:38;22.85;;;12.02;;
21091;SDS011;10704;42.678;23.288;2023-02-18T06:06:04;27.05;;;12.32;;
21091;SDS011;10704;42.678;23.288;2023-02-18T06:08:30;26.50;;;13.07;;
21091;SDS011;10704;42.678;23.288;2023-02-18T06:10:56;24.90;;;12.70;;
21091;SDS011;10704;42.678;23.288;2023-02-18T06:13:22;30.40;;;13.20;;
21091;SDS011;10704;42.678;23.288;2023-02-18T06:15:51;26.35;;;13.05;;
21091;SDS011;10704;42.678;23.288;2023-02-18T06:18:18;26.35;;;13.55;;
21091;SDS011;10704;42.678;23.288;2023-02-18T06:20:45;29.10;;;13.30;;
21091;SDS011;10704;42.678;23.288;2023-02-18T06:23:12;25.50;;;12.13;;
21091;SDS011;10704;42.678;23.288;2023-02-18T06:25:38;29.42;;;11.95;;
21091;SDS011;10704;42.678;23.288;2023-02-18T06:28:04;24.67;;;11.32;;
21091;SDS011;10704;42.678;23.288;2023-02-18T06:30:30;30.92;;;13.82;;
21091;SDS011;10704;42.678;23.288;2023-02-18T06:32:56;25.83;;;12.25;;
21091;SDS011;10704;42.678;23.288;2023-02-18T06:35:22;26.15;;;12.68;;
21091;SDS011;10704;42.678;23.288;2023-02-18T06:37:48;24.17;;;11.75;;
21091;SDS011;10704;42.678;23.288;2023-02-18T06:40:14;23.23;;;12.35;;
21091;SDS011;10704;42.678;23.288;2023-02-18T06:42:40;24.40;;;12.30;;
21091;SDS011;10704;42.678;23.288;2023-02-18T06:45:06;21.95;;;11.65;;
21091;SDS011;10704;42.678;23.288;2023-02-18T06:47:33;30.00;;;12.07;;
21091;SDS011;10704;42.678;23.288;2023-02-18T06:49:59;23.58;;;11.68;;
21091;SDS011;10704;42.678;23.288;2023-02-18T06:52:25;25.77;;;12.80;;
21091;SDS011;10704;42.678;23.288;2023-02-18T06:54:51;24.80;;;11.93;;
21091;SDS011;10704;42.678;23.288;2023-02-18T06:57:16;22.90;;;10.68;;
21091;SDS011;10704;42.678;23.288;2023-02-18T06:59:43;22.30;;;11.57;;
21091;SDS011;10704;42.678;23.288;2023-02-18T07:02:10;26.85;;;12.77;;
21091;SDS011;10704;42.678;23.288;2023-02-18T07:04:37;26.55;;;12.73;;
21091;SDS011;10704;42.678;23.288;2023-02-18T07:07:03;26.23;;;12.48;;
21091;SDS011;10704;42.678;23.288;2023-02-18T07:09:29;26.85;;;11.45;;
21091;SDS011;10704;42.678;23.288;2023-02-18T07:11:55;19.92;;;10.98;;
21091;SDS011;10704;42.678;23.288;2023-02-18T07:14:21;34.30;;;13.13;;
21091;SDS011;10704;42.678;23.288;2023-02-18T07:16:48;25.35;;;12.60;;
21091;SDS011;10704;42.678;23.288;2023-02-18T07:19:14;25.48;;;11.88;;
21091;SDS011;10704;42.678;23.288;2023-02-18T07:21:41;26.38;;;12.02;;
21091;SDS011;10704;42.678;23.288;2023-02-18T07:24:07;26.38;;;12.18;;
21091;SDS011;10704;42.678;23.288;2023-02-18T07:26:33;26.15;;;12.50;;
21091;SDS011;10704;42.678;23.288;2023-02-18T07:32:46;23.40;;;11.77;;
21091;SDS011;10704;42.678;23.288;2023-02-18T07:35:13;24.92;;;11.75;;
21091;SDS011;10704;42.678;23.288;2023-02-18T07:37:47;27.83;;;13.23;;
21091;SDS011;10704;42.678;23.288;2023-02-18T07:40:14;23.67;;;12.65;;
21091;SDS011;10704;42.678;23.288;2023-02-18T07:42:42;26.15;;;13.57;;
21091;SDS011;10704;42.678;23.288;2023-02-18T07:48:02;35.08;;;13.70;;
21091;SDS011;10704;42.678;23.288;2023-02-18T07:54:18;25.77;;;13.43;;
21091;SDS011;10704;42.678;23.288;2023-02-18T07:56:44;26.83;;;12.85;;
21091;SDS011;10704;42.678;23.288;2023-02-18T07:59:11;27.20;;;14.30;;
21091;SDS011;10704;42.678;23.288;2023-02-18T08:01:38;32.33;;;15.88;;
21091;SDS011;10704;42.678;23.288;2023-02-18T08:04:04;32.58;;;13.65;;
21091;SDS011;10704;42.678;23.288;2023-02-18T08:06:32;27.23;;;14.27;;
21091;SDS011;10704;42.678;23.288;2023-02-18T08:09:00;24.10;;;13.18;;
21091;SDS011;10704;42.678;23.288;2023-02-18T08:11:26;32.00;;;13.27;;
21091;SDS011;10704;42.678;23.288;2023-02-18T08:13:52;23.95;;;14.27;;
21091;SDS011;10704;42.678;23.288;2023-02-18T08:20:05;31.88;;;14.43;;
21091;SDS011;10704;42.678;23.288;2023-02-18T08:22:32;31.10;;;14.63;;
21091;SDS011;10704;42.678;23.288;2023-02-18T08:24:58;34.75;;;16.08;;
21091;SDS011;10704;42.678;23.288;2023-02-18T08:27:24;32.25;;;14.73;;
21091;SDS011;10704;42.678;23.288;2023-02-18T08:29:50;33.00;;;15.15;;
21091;SDS011;10704;42.678;23.288;2023-02-18T08:36:05;30.55;;;16.67;;
21091;SDS011;10704;42.678;23.288;2023-02-18T08:38:32;33.08;;;18.02;;
21091;SDS011;10704;42.678;23.288;2023-02-18T08:41:02;36.70;;;16.30;;
21091;SDS011;10704;42.678;23.288;2023-02-18T08:43:29;32.72;;;16.05;;
21091;SDS011;10704;42.678;23.288;2023-02-18T08:45:56;35.40;;;17.88;;
21091;SDS011;10704;42.678;23.288;2023-02-18T08:48:23;40.80;;;19.42;;
21091;SDS011;10704;42.678;23.288;2023-02-18T08:50:49;32.70;;;16.80;;
21091;SDS011;10704;42.678;23.288;2023-02-18T08:53:15;30.92;;;14.88;;
21091;SDS011;10704;42.678;23.288;2023-02-18T08:55:42;30.35;;;13.57;;
21091;SDS011;10704;42.678;23.288;2023-02-18T08:58:08;26.20;;;14.00;;
21091;SDS011;10704;42.678;23.288;2023-02-18T09:00:36;29.42;;;13.40;;
21091;SDS011;10704;42.678;23.288;2023-02-18T09:03:04;32.75;;;16.38;;
21091;SDS011;10704;42.678;23.288;2023-02-18T09:05:30;30.25;;;15.77;;
21091;SDS011;10704;42.678;23.288;2023-02-18T09:07:56;28.48;;;15.30;;
21091;SDS011;10704;42.678;23.288;2023-02-18T09:10:21;32.65;;;16.80;;
21091;SDS011;10704;42.678;23.288;2023-02-18T09:12:48;34.08;;;15.82;;
21091;SDS011;10704;42.678;23.288;2023-02-18T09:15:14;37.95;;;16.73;;
21091;SDS011;10704;42.678;23.288;2023-02-18T09:17:40;31.60;;;15.57;;
21091;SDS011;10704;42.678;23.288;2023-02-18T09:30:18;32.22;;;15.63;;
21091;SDS011;10704;42.678;23.288;2023-02-18T09:36:31;26.30;;;14.77;;
21091;SDS011;10704;42.678;23.288;2023-02-18T09:42:45;27.70;;;15.80;;
21091;SDS011;10704;42.678;23.288;2023-02-18T09:45:11;32.00;;;14.70;;
21091;SDS011;10704;42.678;23.288;2023-02-18T09:47:39;36.22;;;16.00;;
21091;SDS011;10704;42.678;23.288;2023-02-18T09:52:41;35.65;;;16.73;;
21091;SDS011;10704;42.678;23.288;2023-02-18T10:01:51;27.60;;;14.35;;
21091;SDS011;10704;42.678;23.288;2023-02-18T10:04:21;27.42;;;13.93;;
21091;SDS011;10704;42.678;23.288;2023-02-18T10:06:50;24.10;;;12.25;;
21091;SDS011;10704;42.678;23.288;2023-02-18T10:11:51;21.80;;;12.82;;
21091;SDS011;10704;42.678;23.288;2023-02-18T10:14:20;26.40;;;14.43;;
21091;SDS011;10704;42.678;23.288;2023-02-18T10:20:34;24.63;;;13.85;;
21091;SDS011;10704;42.678;23.288;2023-02-18T10:26:47;26.73;;;13.15;;
21091;SDS011;10704;42.678;23.288;2023-02-18T10:29:16;26.08;;;13.48;;
21091;SDS011;10704;42.678;23.288;2023-02-18T10:31:45;24.55;;;13.65;;
21091;SDS011;10704;42.678;23.288;2023-02-18T10:34:46;25.73;;;14.93;;
21091;SDS011;10704;42.678;23.288;2023-02-18T10:43:00;29.20;;;14.15;;
21091;SDS011;10704;42.678;23.288;2023-02-18T10:51:25;23.00;;;14.77;;
21091;SDS011;10704;42.678;23.288;2023-02-18T10:53:55;24.60;;;14.60;;
21091;SDS011;10704;42.678;23.288;2023-02-18T10:56:31;27.98;;;13.98;;
21091;SDS011;10704;42.678;23.288;2023-02-18T10:59:05;28.05;;;15.73;;
21091;SDS011;10704;42.678;23.288;2023-02-18T11:01:36;29.65;;;15.65;;
21091;SDS011;10704;42.678;23.288;2023-02-18T11:04:06;30.10;;;15.40;;
21091;SDS011;10704;42.678;23.288;2023-02-18T11:06:38;22.33;;;12.65;;
21091;SDS011;10704;42.678;23.288;2023-02-18T11:09:53;20.20;;;12.30;;
21091;SDS011;10704;42.678;23.288;2023-02-18T11:12:03;24.88;;;11.93;;
21091;SDS011;10704;42.678;23.288;2023-02-18T11:24:37;16.92;;;9.63;;
21091;SDS011;10704;42.678;23.288;2023-02-18T11:27:07;9.68;;;5.53;;
21091;SDS011;10704;42.678;23.288;2023-02-18T11:29:35;11.35;;;3.45;;
21091;SDS011;10704;42.678;23.288;2023-02-18T11:35:57;10.95;;;4.38;;
21091;SDS011;10704;42.678;23.288;2023-02-18T11:38:49;10.43;;;4.85;;
21091;SDS011;10704;42.678;23.288;2023-02-18T11:49:37;10.00;;;3.53;;
21091;SDS011;10704;42.678;23.288;2023-02-18T11:55:13;9.13;;;3.20;;
21091;SDS011;10704;42.678;23.288;2023-02-18T11:57:41;10.70;;;4.53;;
21091;SDS011;10704;42.678;23.288;2023-02-18T12:00:21;10.82;;;4.13;;
21091;SDS011;10704;42.678;23.288;2023-02-18T12:09:34;8.32;;;3.92;;
21091;SDS011;10704;42.678;23.288;2023-02-18T12:12:35;12.13;;;4.10;;
21091;SDS011;10704;42.678;23.288;2023-02-18T12:15:15;7.10;;;3.58;;
21091;SDS011;10704;42.678;23.288;2023-02-18T12:17:48;6.80;;;3.08;;
21091;SDS011;10704;42.678;23.288;2023-02-18T12:39:58;13.88;;;5.13;;
21091;SDS011;10704;42.678;23.288;2023-02-18T12:43:04;10.32;;;4.30;;
21091;SDS011;10704;42.678;23.288;2023-02-18T12:48:41;12.05;;;4.10;;
21091;SDS011;10704;42.678;23.288;2023-02-18T12:51:37;8.65;;;4.65;;
21091;SDS011;10704;42.678;23.288;2023-02-18T12:54:27;12.63;;;4.43;;
21091;SDS011;10704;42.678;23.288;2023-02-18T13:02:31;8.45;;;3.42;;
21091;SDS011;10704;42.678;23.288;2023-02-18T13:18:03;11.30;;;3.72;;
21091;SDS011;10704;42.678;23.288;2023-02-18T13:21:36;14.13;;;6.13;;
21091;SDS011;10704;42.678;23.288;2023-02-18T13:23:34;13.93;;;7.65;;
21091;SDS011;10704;42.678;23.288;2023-02-18T13:26:10;10.07;;;4.30;;
21091;SDS011;10704;42.678;23.288;2023-02-18T13:35:17;9.77;;;3.63;;
21091;SDS011;10704;42.678;23.288;2023-02-18T13:40:47;9.85;;;5.00;;
21091;SDS011;10704;42.678;23.288;2023-02-18T13:43:19;12.18;;;5.80;;
21091;SDS011;10704;42.678;23.288;2023-02-18T13:49:33;11.73;;;6.10;;
21091;SDS011;10704;42.678;23.288;2023-02-18T13:52:02;12.38;;;5.88;;
21091;SDS011;10704;42.678;23.288;2023-02-18T13:54:40;14.20;;;6.85;;
21091;SDS011;10704;42.678;23.288;2023-02-18T13:57:14;9.20;;;5.20;;
21091;SDS011;10704;42.678;23.288;2023-02-18T13:59:48;14.07;;;6.40;;
21091;SDS011;10704;42.678;23.288;2023-02-18T14:04:57;14.23;;;5.72;;
21091;SDS011;10704;42.678;23.288;2023-02-18T14:07:45;13.52;;;5.97;;
21091;SDS011;10704;42.678;23.288;2023-02-18T14:26:35;13.23;;;7.57;;
21091;SDS011;10704;42.678;23.288;2023-02-18T14:29:05;11.50;;;7.20;;
21091;SDS011;10704;42.678;23.288;2023-02-18T14:32:01;11.32;;;6.65;;
21091;SDS011;10704;42.678;23.288;2023-02-18T14:40:07;13.25;;;6.00;;
21091;SDS011;10704;42.678;23.288;2023-02-18T14:52:28;13.40;;;7.88;;
21091;SDS011;10704;42.678;23.288;2023-02-18T14:58:12;12.80;;;6.25;;
21091;SDS011;10704;42.678;23.288;2023-02-18T15:00:42;10.70;;;5.40;;
21091;SDS011;10704;42.678;23.288;2023-02-18T15:03:12;14.93;;;6.50;;
21091;SDS011;10704;42.678;23.288;2023-02-18T15:05:40;11.07;;;6.38;;
21091;SDS011;10704;42.678;23.288;2023-02-18T15:08:21;13.18;;;6.85;;
21091;SDS011;10704;42.678;23.288;2023-02-18T15:13:35;14.77;;;8.60;;
21091;SDS011;10704;42.678;23.288;2023-02-18T15:16:19;19.75;;;9.50;;
21091;SDS011;10704;42.678;23.288;2023-02-18T15:18:58;17.25;;;9.52;;
21091;SDS011;10704;42.678;23.288;2023-02-18T15:21:28;19.10;;;9.75;;
21091;SDS011;10704;42.678;23.288;2023-02-18T15:23:58;17.63;;;8.80;;
21091;SDS011;10704;42.678;23.288;2023-02-18T15:26:45;14.88;;;7.82;;
21091;SDS011;10704;42.678;23.288;2023-02-18T15:29:17;14.80;;;8.48;;
21091;SDS011;10704;42.678;23.288;2023-02-18T15:31:45;15.57;;;8.25;;
21091;SDS011;10704;42.678;23.288;2023-02-18T15:34:26;16.02;;;8.15;;
21091;SDS011;10704;42.678;23.288;2023-02-18T15:37:00;19.27;;;8.05;;
21091;SDS011;10704;42.678;23.288;2023-02-18T15:39:27;17.33;;;7.80;;
21091;SDS011;10704;42.678;23.288;2023-02-18T15:41:54;15.93;;;7.95;;
21091;SDS011;10704;42.678;23.288;2023-02-18T15:44:24;13.25;;;8.10;;
21091;SDS011;10704;42.678;23.288;2023-02-18T15:46:53;15.57;;;8.65;;
21091;SDS011;10704;42.678;23.288;2023-02-18T15:49:20;13.82;;;8.02;;
21091;SDS011;10704;42.678;23.288;2023-02-18T15:51:48;16.50;;;7.50;;
21091;SDS011;10704;42.678;23.288;2023-02-18T15:54:19;15.30;;;8.48;;
21091;SDS011;10704;42.678;23.288;2023-02-18T15:56:51;15.32;;;8.65;;
21091;SDS011;10704;42.678;23.288;2023-02-18T15:59:24;19.92;;;8.82;;
21091;SDS011;10704;42.678;23.288;2023-02-18T16:01:53;18.65;;;8.20;;
21091;SDS011;10704;42.678;23.288;2023-02-18T16:04:40;20.25;;;9.13;;
21091;SDS011;10704;42.678;23.288;2023-02-18T16:07:19;20.20;;;10.15;;
21091;SDS011;10704;42.678;23.288;2023-02-18T16:09:46;18.98;;;11.05;;
21091;SDS011;10704;42.678;23.288;2023-02-18T16:12:35;21.75;;;10.20;;
21091;SDS011;10704;42.678;23.288;2023-02-18T16:15:01;18.02;;;11.13;;
21091;SDS011;10704;42.678;23.288;2023-02-18T16:22:49;18.58;;;10.98;;
21091;SDS011;10704;42.678;23.288;2023-02-18T16:25:26;26.83;;;13.48;;
21091;SDS011;10704;42.678;23.288;2023-02-18T16:28:45;22.95;;;12.77;;
21091;SDS011;10704;42.678;23.288;2023-02-18T16:30:57;23.30;;;11.10;;
21091;SDS011;10704;42.678;23.288;2023-02-18T16:33:23;23.30;;;12.57;;
21091;SDS011;10704;42.678;23.288;2023-02-18T16:35:49;24.00;;;13.82;;
21091;SDS011;10704;42.678;23.288;2023-02-18T16:38:21;27.25;;;14.88;;
21091;SDS011;10704;42.678;23.288;2023-02-18T16:40:49;22.20;;;12.52;;
21091;SDS011;10704;42.678;23.288;2023-02-18T16:43:23;19.50;;;10.93;;
21091;SDS011;10704;42.678;23.288;2023-02-18T16:45:52;15.80;;;8.27;;
21091;SDS011;10704;42.678;23.288;2023-02-18T16:55:04;23.20;;;12.48;;
21091;SDS011;10704;42.678;23.288;2023-02-18T16:57:44;21.50;;;12.38;;
21091;SDS011;10704;42.678;23.288;2023-02-18T17:00:10;21.92;;;11.57;;
21091;SDS011;10704;42.678;23.288;2023-02-18T17:02:36;21.42;;;11.77;;
21091;SDS011;10704;42.678;23.288;2023-02-18T17:05:03;21.83;;;9.65;;
21091;SDS011;10704;42.678;23.288;2023-02-18T17:07:28;19.95;;;9.10;;
21091;SDS011;10704;42.678;23.288;2023-02-18T17:20:12;19.48;;;10.65;;
21091;SDS011;10704;42.678;23.288;2023-02-18T17:22:39;15.32;;;8.40;;
21091;SDS011;10704;42.678;23.288;2023-02-18T17:25:10;18.73;;;9.55;;
21091;SDS011;10704;42.678;23.288;2023-02-18T17:27:39;21.05;;;11.32;;
21091;SDS011;10704;42.678;23.288;2023-02-18T17:34:04;20.10;;;9.95;;
21091;SDS011;10704;42.678;23.288;2023-02-18T17:36:32;17.77;;;9.15;;
21091;SDS011;10704;42.678;23.288;2023-02-18T17:41:53;20.00;;;9.57;;
21091;SDS011;10704;42.678;23.288;2023-02-18T17:44:20;16.30;;;8.93;;
21091;SDS011;10704;42.678;23.288;2023-02-18T17:46:46;17.65;;;9.18;;
21091;SDS011;10704;42.678;23.288;2023-02-18T17:49:16;21.02;;;9.82;;
21091;SDS011;10704;42.678;23.288;2023-02-18T17:51:43;16.85;;;9.10;;
21091;SDS011;10704;42.678;23.288;2023-02-18T17:57:58;17.58;;;8.32;;
21091;SDS011;10704;42.678;23.288;2023-02-18T18:04:16;18.13;;;8.63;;
21091;SDS011;10704;42.678;23.288;2023-02-18T18:06:43;15.15;;;7.90;;
21091;SDS011;10704;42.678;23.288;2023-02-18T18:13:18;17.70;;;8.57;;
21091;SDS011;10704;42.678;23.288;2023-02-18T18:15:46;28.35;;;13.55;;
21091;SDS011;10704;42.678;23.288;2023-02-18T18:18:12;23.00;;;11.32;;
21091;SDS011;10704;42.678;23.288;2023-02-18T18:30:48;20.10;;;10.50;;
21091;SDS011;10704;42.678;23.288;2023-02-18T18:38:32;22.25;;;9.70;;
21091;SDS011;10704;42.678;23.288;2023-02-18T18:44:46;26.65;;;12.73;;
21091;SDS011;10704;42.678;23.288;2023-02-18T18:47:12;30.80;;;13.63;;
21091;SDS011;10704;42.678;23.288;2023-02-18T18:49:38;28.63;;;14.07;;
21091;SDS011;10704;42.678;23.288;2023-02-18T18:52:04;23.88;;;13.05;;
21091;SDS011;10704;42.678;23.288;2023-02-18T18:54:31;25.20;;;12.95;;
21091;SDS011;10704;42.678;23.288;2023-02-18T18:56:57;24.08;;;11.27;;
21091;SDS011;10704;42.678;23.288;2023-02-18T19:06:30;20.17;;;10.75;;
21091;SDS011;10704;42.678;23.288;2023-02-18T19:12:44;24.98;;;10.43;;
21091;SDS011;10704;42.678;23.288;2023-02-18T19:15:12;19.70;;;10.07;;
21091;SDS011;10704;42.678;23.288;2023-02-18T19:17:43;24.35;;;11.35;;
21091;SDS011;10704;42.678;23.288;2023-02-18T19:20:14;21.23;;;10.95;;
21091;SDS011;10704;42.678;23.288;2023-02-18T19:22:41;21.27;;;11.00;;
21091;SDS011;10704;42.678;23.288;2023-02-18T19:25:07;22.15;;;10.88;;
21091;SDS011;10704;42.678;23.288;2023-02-18T19:27:37;22.48;;;11.73;;
21091;SDS011;10704;42.678;23.288;2023-02-18T19:33:52;23.63;;;11.95;;
21091;SDS011;10704;42.678;23.288;2023-02-18T19:36:18;24.30;;;11.02;;
21091;SDS011;10704;42.678;23.288;2023-02-18T19:38:44;27.27;;;12.23;;
21091;SDS011;10704;42.678;23.288;2023-02-18T19:41:11;26.00;;;12.23;;
21091;SDS011;10704;42.678;23.288;2023-02-18T19:43:39;23.48;;;11.63;;
21091;SDS011;10704;42.678;23.288;2023-02-18T19:46:09;24.45;;;11.68;;